Home > Products > Valid Products > TAF

000
FTUS43 KGID 311137
TAFGRI
TAF
KGRI 311137Z 3112/0112 21006KT P6SM SCT090 BKN250
     FM311900 VRB05KT P6SM VCSH SCT050 BKN070
     FM010100 VRB04KT P6SM SCT070=



000
FTUS43 KGID 311137
TAFGRI
TAF
KGRI 311137Z 3112/0112 21006KT P6SM SCT090 BKN250
     FM311900 VRB05KT P6SM VCSH SCT050 BKN070
     FM010100 VRB04KT P6SM SCT070=



000
FTUS43 KGID 310523
TAFGRI
TAF
KGRI 310523Z 3106/0106 21005KT P6SM BKN250
     FM311300 19008KT P6SM VCSH BKN070
     FM010000 VRB05KT P6SM SCT100=



000
FTUS43 KGID 310523
TAFGRI
TAF
KGRI 310523Z 3106/0106 21005KT P6SM BKN250
     FM311300 19008KT P6SM VCSH BKN070
     FM010000 VRB05KT P6SM SCT100=



000
FTUS43 KGID 302320
TAFGRI
TAF
KGRI 302320Z 3100/3124 VRB03KT P6SM SCT060 BKN100
     FM310700 20003KT P6SM BKN060
     FM311700 21008KT P6SM SCT060 BKN100=



000
FTUS43 KGID 302320
TAFGRI
TAF
KGRI 302320Z 3100/3124 VRB03KT P6SM SCT060 BKN100
     FM310700 20003KT P6SM BKN060
     FM311700 21008KT P6SM SCT060 BKN100=



000
FTUS43 KGID 301720
TAFGRI
TAF
KGRI 301720Z 3018/3118 03006KT P6SM BKN060
     FM310000 VRB03KT P6SM SCT060 BKN100
     FM310700 20003KT P6SM BKN060
     FM311700 21008KT P6SM SCT060 BKN100=



000
FTUS43 KGID 301720
TAFGRI
TAF
KGRI 301720Z 3018/3118 03006KT P6SM BKN060
     FM310000 VRB03KT P6SM SCT060 BKN100
     FM310700 20003KT P6SM BKN060
     FM311700 21008KT P6SM SCT060 BKN100=



000
FTUS43 KGID 301120
TAFGRI
TAF
KGRI 301120Z 3012/3112 03006KT P6SM BKN200
     FM310000 VRB03KT P6SM SCT250
     FM310700 21003KT P6SM BKN070=



000
FTUS43 KGID 301120
TAFGRI
TAF
KGRI 301120Z 3012/3112 03006KT P6SM BKN200
     FM310000 VRB03KT P6SM SCT250
     FM310700 21003KT P6SM BKN070=



000
FTUS43 KGID 300526
TAFGRI
TAF
KGRI 300526Z 3006/3106 VRB03KT P6SM BKN120
     FM301600 04006KT P6SM BKN250
     FM310200 00000KT P6SM SCT250=



000
FTUS43 KGID 300526
TAFGRI
TAF
KGRI 300526Z 3006/3106 VRB03KT P6SM BKN120
     FM301600 04006KT P6SM BKN250
     FM310200 00000KT P6SM SCT250=



000
FTUS43 KGID 292320
TAFGRI
TAF
KGRI 292320Z 3000/3024 VRB06KT P6SM SCT050
     FM300300 VRB05KT P6SM SCT100
     FM301700 04006KT P6SM SCT100=



000
FTUS43 KGID 291743
TAFGRI
TAF
KGRI 291743Z 2918/3018 VRB06KT P6SM BKN100
     FM301200 05005KT P6SM SCT100=



000
FTUS43 KGID 291743
TAFGRI
TAF
KGRI 291743Z 2918/3018 VRB06KT P6SM BKN100
     FM301200 05005KT P6SM SCT100=



000
FTUS43 KGID 291124
TAFGRI
TAF
KGRI 291124Z 2912/3012 VRB03KT P6SM BKN060 BKN100
     FM291800 VRB05KT P6SM FEW070
     FM300300 00000KT P6SM BKN200=



000
FTUS43 KGID 291124
TAFGRI
TAF
KGRI 291124Z 2912/3012 VRB03KT P6SM BKN060 BKN100
     FM291800 VRB05KT P6SM FEW070
     FM300300 00000KT P6SM BKN200=



000
FTUS43 KGID 290758 AAA
TAFGRI
TAF AMD
KGRI 290758Z 2908/3006 11003KT P6SM BKN070 BKN100
      TEMPO 2908/2912 -SHRA SCT050
     FM291500 11005KT P6SM SCT070 BKN200=



000
FTUS43 KGID 290758 AAA
TAFGRI
TAF AMD
KGRI 290758Z 2908/3006 11003KT P6SM BKN070 BKN100
      TEMPO 2908/2912 -SHRA SCT050
     FM291500 11005KT P6SM SCT070 BKN200=



000
FTUS43 KGID 290520
TAFGRI
TAF
KGRI 290520Z 2906/3006 11003KT P6SM BKN070
     FM291500 11005KT P6SM SCT070 BKN200=



000
FTUS43 KGID 290520
TAFGRI
TAF
KGRI 290520Z 2906/3006 11003KT P6SM BKN070
     FM291500 11005KT P6SM SCT070 BKN200=



000
FTUS43 KGID 282320
TAFGRI
TAF
KGRI 282320Z 2900/2924 VRB06KT P6SM FEW070
     FM290500 VRB06KT P6SM SCT070
     FM291400 14007KT P6SM SCT070=



000
FTUS43 KGID 282320
TAFGRI
TAF
KGRI 282320Z 2900/2924 VRB06KT P6SM FEW070
     FM290500 VRB06KT P6SM SCT070
     FM291400 14007KT P6SM SCT070=



000
FTUS43 KGID 281726
TAFGRI
TAF
KGRI 281726Z 2818/2918 03005KT P6SM FEW040 SCT100
     FM291400 12006KT P6SM SCT100=



000
FTUS43 KGID 281726
TAFGRI
TAF
KGRI 281726Z 2818/2918 03005KT P6SM FEW040 SCT100
     FM291400 12006KT P6SM SCT100=



    US Dept of Commerce
    National Oceanic and Atmospheric Administration
    National Weather Service
    1325 East West Highway
    Silver Spring, MD 20910
    Page Author: NWS Internet Services Team
Disclaimer
Information Quality
Credits
Glossary
Privacy Policy
Freedom of Information Act (FOIA)
About Us
Career Opportunities